createdAt,value
2022-09-05T00:02:48.926Z,100878.63
2022-09-05T00:10:03.228Z,100836.16
2022-09-05T00:17:04.820Z,100865.03
2022-09-05T00:24:30.064Z,100823.72
2022-09-05T00:31:54.402Z,100818.69
2022-09-05T00:38:55.879Z,100864.94
2022-09-05T00:45:47.610Z,100851.44
2022-09-05T00:52:39.972Z,100861.84
2022-09-05T01:00:16.398Z,100807.66
2022-09-05T01:07:21.928Z,100843.16
2022-09-05T01:14:27.820Z,100835.88
2022-09-05T01:21:49.499Z,100824.94
2022-09-05T01:29:15.153Z,100781.03
2022-09-05T01:36:16.801Z,100829.91
2022-09-05T01:43:14.023Z,100827.53
2022-09-05T01:50:17.952Z,100828.06
2022-09-05T01:57:18.274Z,100824.41
2022-09-05T02:05:00.253Z,100809.06
2022-09-05T02:12:00.242Z,100812.91
2022-09-05T02:18:57.454Z,100804.34
2022-09-05T02:26:02.345Z,100706.91
2022-09-05T02:33:11.628Z,100805.16
2022-09-05T02:45:04.158Z,100728.03
2022-09-05T03:01:12.046Z,100814.53
2022-09-05T03:08:17.060Z,100810.34
2022-09-05T03:16:09.244Z,100816.91
2022-09-05T03:23:35.534Z,100836.59
2022-09-05T03:30:23.645Z,100835.72
2022-09-05T03:37:44.824Z,100833.47
2022-09-05T03:45:14.157Z,100832.47
2022-09-05T03:57:08.774Z,100825.50
2022-09-05T04:00:10.840Z,100817.69
2022-09-05T04:08:20.644Z,100829.75
2022-09-05T04:14:12.571Z,100760.72
2022-09-05T04:21:07.309Z,100832.31
2022-09-05T04:27:58.584Z,100845.09
2022-09-05T04:35:11.757Z,100844.94
2022-09-05T04:42:17.208Z,100841.69
2022-09-05T04:49:10.947Z,100845.75
2022-09-05T04:55:58.212Z,100856.28
2022-09-05T05:06:03.005Z,100861.41
2022-09-05T05:11:04.524Z,100822.84
2022-09-05T05:18:14.830Z,100877.28
2022-09-05T05:24:24.848Z,100877.66
2022-09-05T05:31:18.537Z,100877.66
2022-09-05T05:38:25.419Z,100872.06
2022-09-05T05:45:21.811Z,100885.09
2022-09-05T05:52:28.687Z,100888.72
2022-09-05T05:59:56.701Z,100898.16
2022-09-05T06:07:10.035Z,100890.69
2022-09-05T06:15:08.860Z,100900.31
2022-09-05T06:22:33.379Z,100898.63
2022-09-05T06:29:38.059Z,100905.19
2022-09-05T06:36:43.980Z,100910.41
2022-09-05T06:43:58.573Z,100819.03
2022-09-05T06:51:30.303Z,100906.69
2022-09-05T06:58:56.280Z,100916.22
2022-09-05T07:05:55.703Z,100920.47
2022-09-05T07:12:51.126Z,100912.34
2022-09-05T07:19:44.583Z,100921.81
2022-09-05T07:26:51.573Z,100916.81
2022-09-05T07:33:42.851Z,100932.28
2022-09-05T07:40:30.527Z,100944.09
2022-09-05T07:47:26.957Z,100832.13
2022-09-05T07:57:14.611Z,100939.41
2022-09-05T08:01:26.211Z,100943.31
2022-09-05T08:08:22.927Z,100883.84
2022-09-05T08:15:14.075Z,100942.78
2022-09-05T08:22:04.841Z,100936.34
2022-09-05T08:29:02.061Z,100936.91
2022-09-05T08:35:57.699Z,100924.25
2022-09-05T08:44:39.427Z,100913.31
2022-09-05T08:50:32.497Z,100915.69
2022-09-05T08:57:26.212Z,100908.75
2022-09-05T09:04:48.927Z,100913.44
2022-09-05T09:11:40.195Z,100905.28
2022-09-05T09:18:41.044Z,100903.06
2022-09-05T09:25:33.980Z,100898.00
2022-09-05T09:32:26.017Z,100895.69
2022-09-05T09:39:37.541Z,100898.19
2022-09-05T09:46:39.471Z,100895.38
2022-09-05T09:53:52.899Z,100908.28
2022-09-05T10:00:51.324Z,100873.22
2022-09-05T10:10:52.853Z,100876.84
2022-09-05T10:15:32.750Z,100866.69
2022-09-05T10:22:56.365Z,100866.63
2022-09-05T10:29:59.096Z,100849.50
2022-09-05T10:36:55.032Z,100844.16
2022-09-05T10:43:51.989Z,100824.72
2022-09-05T10:50:47.406Z,100814.84
2022-09-05T10:57:46.212Z,100774.41
2022-09-05T11:04:49.835Z,100796.94
2022-09-05T11:11:46.888Z,100791.84
2022-09-05T11:18:58.663Z,100787.44
2022-09-05T11:25:47.830Z,100784.25
2022-09-05T11:39:12.140Z,100770.41
2022-09-05T11:40:53.532Z,100769.00
2022-09-05T11:48:20.354Z,100762.16
2022-09-05T11:55:43.203Z,100749.84
2022-09-05T12:02:49.596Z,100661.47
2022-09-05T12:10:45.913Z,100725.59
2022-09-05T12:17:35.443Z,100734.03
2022-09-05T12:25:25.774Z,100729.56
2022-09-05T12:33:09.752Z,100714.53
2022-09-05T12:41:34.651Z,100708.56
2022-09-05T12:46:24.023Z,100706.13
2022-09-05T12:53:13.774Z,100692.47
2022-09-05T13:03:09.050Z,100690.84
2022-09-05T13:07:17.119Z,100670.69
2022-09-05T13:14:52.605Z,100680.09
2022-09-05T13:21:23.586Z,100668.34
2022-09-05T13:28:14.695Z,100670.84
2022-09-05T13:38:14.611Z,100670.09
2022-09-05T13:42:21.519Z,100660.22
2022-09-05T13:49:29.600Z,100649.38
2022-09-05T13:56:25.075Z,100646.63
2022-09-05T14:03:50.623Z,100645.09
2022-09-05T14:11:20.354Z,100643.34
2022-09-05T14:18:21.637Z,100629.59
2022-09-05T14:25:19.592Z,100625.31
2022-09-05T14:37:39.150Z,100621.59
2022-09-05T14:40:35.925Z,100587.63
2022-09-05T14:48:03.876Z,100613.50
2022-09-05T15:02:49.441Z,100607.66
2022-09-05T15:12:16.708Z,100606.44
2022-09-05T15:16:28.956Z,100595.56
2022-09-05T15:23:35.673Z,100580.47
2022-09-05T15:30:31.877Z,100505.81
2022-09-05T15:37:29.476Z,100573.28
2022-09-05T15:44:24.312Z,100498.69
2022-09-05T15:51:20.922Z,100557.25
2022-09-05T15:58:10.871Z,100563.66
2022-09-05T16:10:27.442Z,100564.69
2022-09-05T16:12:34.160Z,100493.84
2022-09-05T16:23:27.398Z,100550.84
2022-09-05T16:26:41.364Z,100547.13
2022-09-05T16:33:29.757Z,100532.34
2022-09-05T16:40:24.215Z,100532.00
2022-09-05T16:47:25.582Z,100533.94
2022-09-05T16:54:24.540Z,100528.47
2022-09-05T17:01:45.289Z,100522.88
2022-09-05T17:08:34.401Z,100524.22
2022-09-05T17:15:23.281Z,100453.03
2022-09-05T17:28:41.754Z,100518.63
2022-09-05T17:37:42.388Z,100505.03
2022-09-05T17:44:34.576Z,100500.44
2022-09-05T17:52:09.462Z,100505.59
2022-09-05T17:59:10.064Z,100510.06
2022-09-05T18:06:05.513Z,100517.38
2022-09-05T18:13:13.902Z,100510.00
2022-09-05T18:20:12.329Z,100520.81
2022-09-05T18:27:28.126Z,100527.47
2022-09-05T18:34:47.812Z,100524.44
2022-09-05T18:41:40.815Z,100541.75
2022-09-05T18:48:35.627Z,100548.78
2022-09-05T18:56:13.750Z,100551.13
2022-09-05T19:02:51.502Z,100561.19
2022-09-05T19:10:36.254Z,100555.47
2022-09-05T19:17:22.846Z,100545.72
2022-09-05T19:24:16.200Z,100507.31
2022-09-05T19:37:09.604Z,100539.53
2022-09-05T19:38:16.312Z,100538.25
2022-09-05T19:47:56.288Z,100532.50
2022-09-05T19:52:19.928Z,100522.44
2022-09-05T19:59:20.252Z,100519.03
2022-09-05T20:06:29.243Z,100524.22
2022-09-05T20:13:27.943Z,100504.72
2022-09-05T20:20:22.535Z,100508.22
2022-09-05T20:27:08.522Z,100510.06
2022-09-05T20:33:57.933Z,100475.00
2022-09-05T20:43:24.004Z,100500.63
2022-09-05T20:54:13.919Z,100489.88
2022-09-05T20:55:37.831Z,100508.81
2022-09-05T21:02:12.185Z,100512.69
2022-09-05T21:09:14.839Z,100518.81
2022-09-05T21:16:02.689Z,100456.03
2022-09-05T21:22:51.617Z,100523.44
2022-09-05T21:29:39.522Z,100517.84
2022-09-05T21:36:27.116Z,100533.19
2022-09-05T21:47:38.636Z,100485.44
2022-09-05T21:50:31.599Z,100523.25
2022-09-05T21:59:24.053Z,100429.44
2022-09-05T22:04:37.164Z,100495.22
2022-09-05T22:11:28.033Z,100494.47
2022-09-05T22:18:17.740Z,100500.13
2022-09-05T22:25:12.975Z,100465.56
2022-09-05T22:31:59.074Z,100479.59
2022-09-05T22:38:45.512Z,100469.59
2022-09-05T22:45:36.814Z,100474.44
2022-09-05T22:52:22.296Z,100473.69
2022-09-05T22:59:09.292Z,100457.22
2022-09-05T23:05:57.820Z,100457.38
2022-09-05T23:12:43.351Z,100469.84
2022-09-05T23:19:30.873Z,100473.84
2022-09-05T23:26:20.396Z,100410.16
2022-09-05T23:33:08.853Z,100484.00
2022-09-05T23:39:54.522Z,100494.06
2022-09-05T23:46:42.898Z,100478.41
2022-09-05T23:53:28.879Z,100475.56
